Pagrindinis puslapis
METAR-TAF:

METAR-TAF

Oro uostai :

Dübendorf, Šveicarija

platuma: 47-23-55N, ilguma: 8-38-53E, Aukštis: 448 m

Dabartinis oras

Ataskaita buvo paskelbta 33 minutes, ne 20:50 UTC
Vėjas 11 kt iš Vakarų, svyruoja nuo Pietvakarių ir Vakarų/Šiaurės Vakarų
Temperatūra 8°C
Drėgmė 66%
Slėgis 1009 hPa
Matomumas 10 km arba daugiau
Su prošvaistėmis ne aukštis 4000 ft
Apsiniaukę ne aukštis 5100 ft
lietus

METAR: LSMD 272050Z AUTO 26011KT 220V290 9999NDV -SHRA BKN040 OVC051 08/02 Q1009 RMK

Laikas: 22:23 (21:23 UTC)


TAF: trūkstamas

Orai ataskaitas ir orų prognozės (METAR, TAF).

turimą stotys yra geltonos ir raudonos taškus žemėlapyje.

Perkelti pele per norėdami pamatyti stoties vardą.

Tada spustelėkite, norėdami matyti oro stebėjimo ir prognozės.

Norėdami pakeisti žemėlapį: spustelėkite ant žalios mygtukų su juodo kryžiaus žemyn,; žalią mygtuką su brūkšneliu, jei norite nutolinti; arba žalių rodyklių gretimoms žemėlapius.


METAR-TAF: